地図

経路データ

SID SEASON NUMBER BASIN SUBBASIN NAME ISO_TIME NATURE LAT LON WMO_WIND WMO_PRES WMO_AGENCY TRACK_TYPE DIST2LAND LANDFALL IFLAG USA_AGENCY USA_ATCF_ID USA_LAT USA_LON USA_RECORD USA_STATUS USA_WIND USA_PRES USA_SSHS USA_R34_NE USA_R34_SE USA_R34_SW USA_R34_NW USA_R50_NE USA_R50_SE USA_R50_SW USA_R50_NW USA_R64_NE USA_R64_SE USA_R64_SW USA_R64_NW USA_POCI USA_ROCI USA_RMW USA_EYE TOKYO_LAT TOKYO_LON TOKYO_GRADE TOKYO_WIND TOKYO_PRES TOKYO_R50_DIR TOKYO_R50_LONG TOKYO_R50_SHORT TOKYO_R30_DIR TOKYO_R30_LONG TOKYO_R30_SHORT TOKYO_LAND CMA_LAT CMA_LON CMA_CAT CMA_WIND CMA_PRES HKO_LAT HKO_LON HKO_CAT HKO_WIND HKO_PRES NEWDELHI_LAT NEWDELHI_LON NEWDELHI_GRADE NEWDELHI_WIND NEWDELHI_PRES NEWDELHI_CI NEWDELHI_DP NEWDELHI_POCI REUNION_LAT REUNION_LON REUNION_TYPE REUNION_WIND REUNION_PRES REUNION_TNUM REUNION_CI REUNION_RMW REUNION_R34_NE REUNION_R34_SE REUNION_R34_SW REUNION_R34_NW REUNION_R50_NE REUNION_R50_SE REUNION_R50_SW REUNION_R50_NW REUNION_R64_NE REUNION_R64_SE REUNION_R64_SW REUNION_R64_NW BOM_LAT BOM_LON BOM_TYPE BOM_WIND BOM_PRES BOM_TNUM BOM_CI BOM_RMW BOM_R34_NE BOM_R34_SE BOM_R34_SW BOM_R34_NW BOM_R50_NE BOM_R50_SE BOM_R50_SW BOM_R50_NW BOM_R64_NE BOM_R64_SE BOM_R64_SW BOM_R64_NW BOM_ROCI BOM_POCI BOM_EYE BOM_POS_METHOD BOM_PRES_METHOD NADI_LAT NADI_LON NADI_CAT NADI_WIND NADI_PRES WELLINGTON_LAT WELLINGTON_LON WELLINGTON_WIND WELLINGTON_PRES DS824_LAT DS824_LON DS824_STAGE DS824_WIND DS824_PRES TD9636_LAT TD9636_LON TD9636_STAGE TD9636_WIND TD9636_PRES TD9635_LAT TD9635_LON TD9635_WIND TD9635_PRES TD9635_ROCI NEUMANN_LAT NEUMANN_LON NEUMANN_CLASS NEUMANN_WIND NEUMANN_PRES MLC_LAT MLC_LON MLC_CLASS MLC_WIND MLC_PRES USA_GUST BOM_GUST BOM_GUST_PER REUNION_GUST REUNION_GUST_PER USA_SEAHGT USA_SEARAD_NE USA_SEARAD_SE USA_SEARAD_SW USA_SEARAD_NW STORM_SPEED STORM_DIR
1939077S13063 1939 21 SI MM NOT_NAMED 1939-03-17 12:00:00 NR -12.9000 63.0000 main 983 971 __________O___ -1 -12.9000 63.0000 2 3 279
1939077S13063 1939 21 SI MM NOT_NAMED 1939-03-17 15:00:00 NR -12.8745 62.8303 main 971 960 __________P___ -1 -12.8745 62.8303 2 4 272
1939077S13063 1939 21 SI MM NOT_NAMED 1939-03-17 18:00:00 NR -12.8893 62.6286 main 960 939 __________P___ -1 -12.8893 62.6286 2 5 256
1939077S13063 1939 21 SI MM NOT_NAMED 1939-03-17 21:00:00 NR -12.9844 62.3627 main 939 897 __________P___ -1 -12.9844 62.3627 2 7 243
1939077S13063 1939 21 SI MM NOT_NAMED 1939-03-18 00:00:00 TS -13.2000 62.0000 main 897 832 _________OO___ -1 -13.2000 62.0000 TC 35 -13.2000 62.0000 2 11 235
1939077S13063 1939 21 SI MM NOT_NAMED 1939-03-18 03:00:00 TS -13.5859 61.4736 main 832 762 _________PP___ -1 -13.6329 61.3754 TC 35 -13.5624 61.5227 2 14 231
1939077S13063 1939 21 SI MM NOT_NAMED 1939-03-18 06:00:00 TS -14.0679 60.8994 main 752 678 _________OP___ -1 -14.1000 60.8000 TC 35 -14.0438 60.9740 2 15 226
1939077S13063 1939 21 SI MM NOT_NAMED 1939-03-18 09:00:00 TS -14.6152 60.3627 main 678 595 _________PP___ -1 -14.6274 60.3123 TC 35 -14.6031 60.4131 2 15 220
1939077S13063 1939 21 SI MM NOT_NAMED 1939-03-18 12:00:00 TS -15.2000 59.9000 main 595 517 _________OO___ -1 -15.2000 59.9000 TC 35 -15.2000 59.9000 2 14 215
1939077S13063 1939 21 SI MM NOT_NAMED 1939-03-18 15:00:00 TS -15.7998 59.5162 main 517 443 _________PP___ -1 -15.7924 59.5273 TC 35 -15.8072 59.5050 2 14 210
1939077S13063 1939 21 SI MM NOT_NAMED 1939-03-18 18:00:00 TS -16.4184 59.1836 main 443 369 _________OP___ -1 -16.4000 59.2000 TC 35 -16.4368 59.1672 2 14 206
1939077S13063 1939 21 SI MM NOT_NAMED 1939-03-18 21:00:00 TS -17.0390 58.8779 main 369 295 _________PP___ -1 -17.0299 58.8850 TC 35 -17.0480 58.8708 2 13 205
1939077S13063 1939 21 SI MM NOT_NAMED 1939-03-19 00:00:00 TS -17.6000 58.6000 main 295 246 _________OO___ -1 -17.6000 58.6000 TC 35 -17.6000 58.6000 2 11 206
1939077S13063 1939 21 SI MM NOT_NAMED 1939-03-19 03:00:00 TS -18.0443 58.3529 main 246 194 _________PP___ -1 -18.0374 58.3422 TC 35 -18.0511 58.3636 2 9 209
1939077S13063 1939 21 SI MM NOT_NAMED 1939-03-19 06:00:00 TS -18.4194 58.1216 main 194 146 _________OP___ -1 -18.4000 58.1000 TC 35 -18.4389 58.1431 2 9 211
1939077S13063 1939 21 SI MM NOT_NAMED 1939-03-19 09:00:00 TS -18.7698 57.8904 main 146 111 _________PP___ -1 -18.7573 57.8797 TC 35 -18.7822 57.9012 2 8 216
1939077S13063 1939 21 SI MM NOT_NAMED 1939-03-19 12:00:00 TS -19.1000 57.6000 main 111 81 _________OO___ -1 -19.1000 57.6000 TC 35 -19.1000 57.6000 2 9 223
1939077S13063 1939 21 SI MM NOT_NAMED 1939-03-19 15:00:00 TS -19.4531 57.2129 main 74 69 _________PP___ -1 -19.4650 57.1876 TC 35 -19.4411 57.2382 2 11 230
1939077S13063 1939 21 SI MM NOT_NAMED 1939-03-19 18:00:00 TS -19.7793 56.7535 main 80 80 _________OP___ -1 -19.8000 56.7000 TC 35 -19.7586 56.8071 2 11 236
1939077S13063 1939 21 SI MM NOT_NAMED 1939-03-19 21:00:00 TS -20.0594 56.2710 main 113 78 _________PP___ -1 -20.0720 56.2447 TC 35 -20.0468 56.2974 2 11 242
1939077S13063 1939 21 SI MM NOT_NAMED 1939-03-20 00:00:00 TS -20.3000 55.7000 main 78 64 _________OO___ -1 -20.3000 55.7000 TC 35 -20.3000 55.7000 2 13 252
1939077S13063 1939 21 SI MM NOT_NAMED 1939-03-20 03:00:00 TS -20.4638 54.9435 main 69 69 _________PP___ -1 -20.5150 54.9949 TC 35 -20.4127 54.8921 2 15 259
1939077S13063 1939 21 SI MM NOT_NAMED 1939-03-20 06:00:00 TS -20.6024 54.1105 main 127 127 _________OP___ -1 -20.7000 54.2000 TC 35 -20.5048 54.0210 2 16 261
1939077S13063 1939 21 SI MM NOT_NAMED 1939-03-20 09:00:00 TS -20.7222 53.2733 main 202 202 _________PP___ -1 -20.7756 53.3317 TC 35 -20.6689 53.2148 2 15 254
1939077S13063 1939 21 SI MM NOT_NAMED 1939-03-20 12:00:00 TS -21.0000 52.6000 main 269 269 _________OO___ -1 -21.0000 52.6000 TC 35 -21.0000 52.6000 2 13 229
1939077S13063 1939 21 SI MM NOT_NAMED 1939-03-20 15:00:00 TS -21.5774 52.2100 main 315 315 _________PP___ -1 -21.5870 52.1510 TC 35 -21.5678 52.2690 2 15 199
1939077S13063 1939 21 SI MM NOT_NAMED 1939-03-20 18:00:00 TS -22.3673 52.0887 main 351 351 _________OP___ -1 -22.4000 52.0000 TC 35 -22.3345 52.1773 2 17 181
1939077S13063 1939 21 SI MM NOT_NAMED 1939-03-20 21:00:00 TS -23.2610 52.1853 main 389 389 _________PP___ -1 -23.2878 52.1234 TC 35 -23.2342 52.2472 2 19 171
1939077S13063 1939 21 SI MM NOT_NAMED 1939-03-21 00:00:00 TS -24.2000 52.4000 main 439 _________OO___ -1 -24.2000 52.4000 TC 35 -24.2000 52.4000 2 19 168

IBTrACS Databaseについて

本データベースは、米国NOAAが公開する1842年以降の世界の熱帯低気圧のベストトラックデータアーカイブInternational Best Track Archive for Climate Stewardship (IBTrACS)を、ウェブで閲覧しやすい形式に変換したものです。

最終更新日:2021-11-26